Time;durP1;ratioP1;P1;durP2;ratioP2;P2;SDS_P1;SDS_P2;PMS_P1;PMS_P2;Temp;Humidity;BMP_temperature;BMP_pressure;BME280_temperature;BME280_humidity;BME280_pressure;Samples;Min_cycle;Max_cycle;Signal;HPM_P1;HPM_P2
2022/05/31 00:00:34;;;;;;;6.90;1.48;;;8.10;99.90;;;;;;5030369;28;20048;-85
2022/05/31 00:03:01;;;;;;;2.13;1.40;;;8.00;99.90;;;;;;5067515;28;20056;-84
2022/05/31 00:05:27;;;;;;;3.42;1.58;;;8.10;99.90;;;;;;5034258;28;20037;-86
2022/05/31 00:07:54;;;;;;;43.70;2.47;;;7.90;99.90;;;;;;5034363;28;20121;-85
2022/05/31 00:10:20;;;;;;;6.38;2.08;;;8.00;99.90;;;;;;5050135;28;20052;-85
2022/05/31 00:12:46;;;;;;;2.90;2.08;;;7.80;99.90;;;;;;5064742;28;20047;-85
2022/05/31 00:15:14;;;;;;;2.30;1.48;;;7.80;99.90;;;;;;5033690;28;20080;-85
2022/05/31 00:17:41;;;;;;;2.33;1.60;;;8.20;99.90;;;;;;5034415;28;20113;-84
2022/05/31 00:20:08;;;;;;;4.18;2.55;;;8.10;99.90;;;;;;5033601;28;20060;-85
2022/05/31 00:22:36;;;;;;;5.00;2.90;;;7.90;99.90;;;;;;5034152;28;20113;-84
2022/05/31 00:25:03;;;;;;;5.57;2.67;;;8.10;99.90;;;;;;5067600;28;20055;-84
2022/05/31 00:27:29;;;;;;;4.80;3.20;;;8.00;99.90;;;;;;5067039;28;20051;-84
2022/05/31 00:29:55;;;;;;;5.22;3.95;;;8.40;99.90;;;;;;5051281;28;20041;-84
2022/05/31 00:32:26;;;;;;;7.00;4.38;;;8.10;99.90;;;;;;5032733;28;20103;-84
2022/05/31 00:34:53;;;;;;;5.57;3.65;;;8.70;99.90;;;;;;5032900;28;20094;-84
2022/05/31 00:37:19;;;;;;;5.90;4.28;;;8.20;99.90;;;;;;5033361;28;20127;-84
2022/05/31 00:39:46;;;;;;;7.53;4.70;;;8.20;99.90;;;;;;5051237;28;20102;-85
2022/05/31 00:42:18;;;;;;;6.10;4.63;;;8.20;99.90;;;;;;5033038;28;20037;-85
2022/05/31 00:44:44;;;;;;;6.45;4.45;;;8.30;99.90;;;;;;5034218;28;20047;-84
2022/05/31 00:47:27;;;;;;;6.07;4.53;;;8.30;99.90;;;;;;5033406;28;20048;-84
2022/05/31 00:49:57;;;;;;;6.38;4.68;;;8.30;99.90;;;;;;5049657;28;20382;-85
2022/05/31 00:52:28;;;;;;;6.97;4.68;;;8.50;99.90;;;;;;5034937;28;20348;-85
2022/05/31 00:55:04;;;;;;;7.43;4.53;;;8.60;99.90;;;;;;5033252;28;20345;-85
2022/05/31 00:57:33;;;;;;;7.38;5.10;;;8.40;99.90;;;;;;5050048;28;20090;-85
2022/05/31 01:00:05;;;;;;;8.70;5.00;;;8.80;99.90;;;;;;5033544;28;20048;-85
2022/05/31 01:02:31;;;;;;;8.57;5.47;;;8.50;99.90;;;;;;5033538;28;20083;-85
2022/05/31 01:05:00;;;;;;;8.55;5.13;;;8.80;99.90;;;;;;5033301;28;20037;-85
2022/05/31 01:07:26;;;;;;;7.68;4.80;;;8.60;99.90;;;;;;5033308;28;20519;-85
2022/05/31 01:09:53;;;;;;;5.63;4.00;;;8.60;99.90;;;;;;5033101;28;20574;-85
2022/05/31 01:12:21;;;;;;;6.75;5.03;;;8.60;99.90;;;;;;5032863;28;20577;-85
2022/05/31 01:14:47;;;;;;;5.05;4.28;;;8.70;99.90;;;;;;5033266;28;20345;-85
2022/05/31 01:17:20;;;;;;;9.73;4.90;;;8.80;99.90;;;;;;5032593;28;20051;-85
2022/05/31 01:19:56;;;;;;;6.50;4.88;;;8.70;99.90;;;;;;5067093;28;20333;-85
2022/05/31 01:22:35;;;;;;;6.10;4.47;;;9.30;99.90;;;;;;5033103;28;20088;-85
2022/05/31 01:25:23;;;;;;;9.32;4.43;;;8.70;99.90;;;;;;5032733;28;20040;-85
2022/05/31 01:28:09;;;;;;;6.10;4.38;;;8.70;99.90;;;;;;5049723;28;20503;-85
2022/05/31 01:30:42;;;;;;;5.80;4.55;;;8.70;99.90;;;;;;5049831;28;20488;-85
2022/05/31 01:33:25;;;;;;;7.63;4.57;;;8.70;99.90;;;;;;5048157;28;20075;-85
2022/05/31 01:35:50;;;;;;;5.73;4.37;;;8.80;99.90;;;;;;5049635;28;20044;-85
2022/05/31 01:38:22;;;;;;;7.03;4.38;;;8.80;99.90;;;;;;5032271;28;20059;-85
2022/05/31 01:41:10;;;;;;;8.05;5.18;;;8.80;99.90;;;;;;5032333;28;20060;-85
2022/05/31 01:43:36;;;;;;;5.75;4.57;;;9.20;99.90;;;;;;5049017;28;20125;-86
2022/05/31 01:46:08;;;;;;;5.28;4.35;;;8.80;99.90;;;;;;5049000;28;20055;-85
2022/05/31 01:48:36;;;;;;;7.63;4.88;;;9.30;99.90;;;;;;5048518;28;20476;-85
2022/05/31 01:51:03;;;;;;;7.82;5.13;;;9.00;99.90;;;;;;5049439;28;20507;-85
2022/05/31 01:53:30;;;;;;;9.00;5.15;;;8.80;99.90;;;;;;5045111;28;20075;-85
2022/05/31 01:55:56;;;;;;;5.97;4.68;;;8.80;99.90;;;;;;5046178;28;20053;-85
2022/05/31 01:58:25;;;;;;;7.45;5.20;;;9.00;99.90;;;;;;5045678;28;20067;-85
2022/05/31 02:00:51;;;;;;;11.13;5.78;;;8.80;99.90;;;;;;5062734;28;20051;-85
2022/05/31 02:03:19;;;;;;;8.50;4.95;;;9.40;99.90;;;;;;5061370;28;20049;-85
2022/05/31 02:05:51;;;;;;;9.68;5.30;;;8.90;99.90;;;;;;5029520;28;20118;-85
2022/05/31 02:08:19;;;;;;;6.22;5.13;;;8.80;99.90;;;;;;5045048;28;20049;-85
2022/05/31 02:10:46;;;;;;;7.18;4.95;;;8.80;99.90;;;;;;5062814;28;20484;-85
2022/05/31 02:13:12;;;;;;;13.27;6.20;;;8.90;99.90;;;;;;5044821;28;20087;-85
2022/05/31 02:15:39;;;;;;;8.77;5.60;;;8.80;99.90;;;;;;5046043;28;20484;-85
2022/05/31 02:18:05;;;;;;;7.78;5.57;;;8.90;99.90;;;;;;5044605;28;20123;-85
2022/05/31 02:20:31;;;;;;;8.57;5.88;;;8.80;99.90;;;;;;5028659;28;20049;-85
2022/05/31 02:22:56;;;;;;;7.07;5.25;;;9.40;99.90;;;;;;5045712;28;20099;-85
2022/05/31 02:25:22;;;;;;;7.43;4.90;;;8.80;99.90;;;;;;5028629;28;20041;-84
2022/05/31 02:27:48;;;;;;;6.30;4.43;;;8.80;99.90;;;;;;5012858;28;20163;-85
2022/05/31 02:30:14;;;;;;;6.85;4.90;;;8.90;99.90;;;;;;5029014;28;20050;-84
2022/05/31 02:32:40;;;;;;;6.72;5.38;;;8.80;99.90;;;;;;5045515;28;20045;-84
2022/05/31 02:35:09;;;;;;;8.10;5.40;;;8.80;99.90;;;;;;5027796;28;20723;-84
2022/05/31 02:37:36;;;;;;;9.10;5.70;;;8.80;99.90;;;;;;5045174;28;20053;-84
2022/05/31 02:40:02;;;;;;;11.30;5.55;;;8.70;99.90;;;;;;5029294;28;20103;-84
2022/05/31 02:42:28;;;;;;;11.27;6.00;;;8.80;99.90;;;;;;5045535;28;20049;-85
2022/05/31 02:44:53;;;;;;;9.32;5.45;;;8.80;99.90;;;;;;5045730;28;20426;-85
2022/05/31 02:47:20;;;;;;;10.55;6.10;;;9.00;99.90;;;;;;5028812;28;20075;-85
2022/05/31 02:49:47;;;;;;;11.95;5.50;;;8.80;99.90;;;;;;5029059;28;20037;-85
2022/05/31 02:52:13;;;;;;;8.02;5.85;;;8.70;99.90;;;;;;5028585;28;20041;-85
2022/05/31 02:54:39;;;;;;;12.40;6.40;;;8.70;99.90;;;;;;5045031;28;20447;-85
2022/05/31 02:57:05;;;;;;;9.20;5.60;;;8.70;99.90;;;;;;5031798;28;20049;-85
2022/05/31 02:59:31;;;;;;;10.52;5.25;;;8.70;99.90;;;;;;5049623;28;20041;-85
2022/05/31 03:01:57;;;;;;;10.45;6.25;;;8.80;99.90;;;;;;5018436;28;20041;-85
2022/05/31 03:04:23;;;;;;;9.00;5.50;;;8.70;99.90;;;;;;5031216;28;20068;-84
2022/05/31 03:06:48;;;;;;;8.90;5.80;;;8.70;99.90;;;;;;5048837;28;20518;-85
2022/05/31 03:09:14;;;;;;;8.60;6.15;;;8.70;99.90;;;;;;5031682;28;20075;-85
2022/05/31 03:12:09;;;;;;;8.40;5.70;;;8.70;99.90;;;;;;5016104;28;20131;-85
2022/05/31 03:14:42;;;;;;;9.02;5.78;;;8.70;99.90;;;;;;5048830;28;20045;-85
2022/05/31 03:17:14;;;;;;;7.82;5.65;;;8.70;99.90;;;;;;5031220;28;20041;-84
2022/05/31 03:19:45;;;;;;;10.88;6.05;;;8.90;99.90;;;;;;5048451;28;20041;-85
2022/05/31 03:22:16;;;;;;;12.00;6.18;;;8.70;99.90;;;;;;5015037;28;20048;-85
2022/05/31 03:24:50;;;;;;;8.10;5.72;;;8.70;99.90;;;;;;5031645;28;20045;-85
2022/05/31 03:27:15;;;;;;;8.30;5.75;;;8.70;99.90;;;;;;5048254;28;20090;-85
2022/05/31 03:29:46;;;;;;;11.95;6.40;;;8.70;99.90;;;;;;5015939;28;20049;-85
2022/05/31 03:32:14;;;;;;;8.38;5.50;;;9.00;99.90;;;;;;5031093;28;20171;-84
2022/05/31 03:34:39;;;;;;;8.73;5.93;;;9.00;99.90;;;;;;5031066;28;20037;-85
2022/05/31 03:37:05;;;;;;;10.20;6.45;;;8.90;99.90;;;;;;5047704;28;20052;-85
2022/05/31 03:39:31;;;;;;;9.73;5.97;;;8.70;99.90;;;;;;5049543;28;20041;-85
2022/05/31 03:41:57;;;;;;;10.23;5.72;;;8.70;99.90;;;;;;5044528;28;20052;-85
2022/05/31 03:44:22;;;;;;;10.55;6.07;;;8.80;99.90;;;;;;5030791;28;20607;-84
2022/05/31 03:46:48;;;;;;;8.05;5.57;;;8.80;99.90;;;;;;5031885;28;20048;-84
2022/05/31 03:49:14;;;;;;;10.95;5.78;;;8.80;99.90;;;;;;5046799;28;20044;-85
2022/05/31 03:51:40;;;;;;;11.98;6.57;;;8.80;99.90;;;;;;5014870;28;20041;-85
2022/05/31 03:54:06;;;;;;;12.27;6.65;;;8.80;99.90;;;;;;5061615;28;20061;-85
2022/05/31 03:56:32;;;;;;;12.77;6.03;;;8.80;99.90;;;;;;5068264;28;20076;-85
2022/05/31 03:58:57;;;;;;;13.50;6.97;;;8.80;99.90;;;;;;5034948;28;20087;-85
2022/05/31 04:01:23;;;;;;;11.15;7.28;;;9.00;99.90;;;;;;5067708;28;20056;-85
2022/05/31 04:03:49;;;;;;;11.48;6.57;;;8.90;99.90;;;;;;5069102;28;20057;-85
2022/05/31 04:06:14;;;;;;;7.93;5.95;;;9.10;99.90;;;;;;5050436;28;20090;-85
2022/05/31 04:08:40;;;;;;;12.38;5.72;;;8.90;99.90;;;;;;5034961;28;20471;-85
2022/05/31 04:11:06;;;;;;;11.13;6.63;;;8.90;99.90;;;;;;5051220;28;20063;-85
2022/05/31 04:13:31;;;;;;;10.57;6.32;;;9.00;99.90;;;;;;5050848;28;20125;-85
2022/05/31 04:16:06;;;;;;;15.70;6.10;;;9.10;99.90;;;;;;5036256;28;20047;-85
2022/05/31 04:18:32;;;;;;;9.18;5.93;;;9.00;99.90;;;;;;5033739;28;20074;-85
2022/05/31 04:21:00;;;;;;;9.77;6.15;;;9.00;99.90;;;;;;5034385;28;20117;-85
2022/05/31 04:26:11;;;;;;;9.35;6.03;;;9.10;99.90;;;;;;5050700;28;20056;-85
2022/05/31 04:28:37;;;;;;;10.48;6.03;;;9.10;99.90;;;;;;5042147;28;20104;-84
2022/05/31 04:31:03;;;;;;;9.98;6.40;;;9.10;99.90;;;;;;5053495;28;20058;-84
2022/05/31 04:33:28;;;;;;;7.10;5.78;;;9.10;99.90;;;;;;5069838;28;20048;-84
2022/05/31 04:36:00;;;;;;;8.57;6.20;;;9.20;99.90;;;;;;5054218;28;20044;-84
2022/05/31 04:38:26;;;;;;;6.93;5.25;;;9.20;99.90;;;;;;5055911;28;20089;-84
2022/05/31 04:40:52;;;;;;;9.32;5.25;;;9.30;99.90;;;;;;5070444;28;20441;-84
2022/05/31 04:43:17;;;;;;;8.82;5.30;;;9.20;99.90;;;;;;5052897;28;20047;-85
2022/05/31 04:45:43;;;;;;;8.63;6.07;;;9.60;99.90;;;;;;5071012;28;20081;-84
2022/05/31 04:48:09;;;;;;;7.80;5.40;;;9.20;99.90;;;;;;5051591;28;20052;-84
2022/05/31 04:50:35;;;;;;;8.40;6.25;;;9.20;99.90;;;;;;5053982;28;20063;-85
2022/05/31 04:53:01;;;;;;;9.50;5.35;;;9.30;99.90;;;;;;5053465;28;20064;-84
2022/05/31 04:55:29;;;;;;;11.18;5.75;;;9.60;99.90;;;;;;5069780;28;20044;-84
2022/05/31 04:57:55;;;;;;;8.60;5.90;;;9.40;99.90;;;;;;5053561;28;20116;-85
2022/05/31 05:00:21;;;;;;;7.75;5.95;;;9.50;99.90;;;;;;5052970;28;20391;-83
2022/05/31 05:02:47;;;;;;;9.27;6.32;;;9.40;99.90;;;;;;5052874;28;20048;-85
2022/05/31 05:05:13;;;;;;;8.55;6.57;;;9.60;99.90;;;;;;5068848;28;20054;-84
2022/05/31 05:07:39;;;;;;;7.63;6.13;;;9.50;99.90;;;;;;5070164;28;20158;-84
2022/05/31 05:10:07;;;;;;;9.05;6.32;;;9.90;99.90;;;;;;5052783;28;20488;-84
2022/05/31 05:12:33;;;;;;;12.07;6.88;;;9.60;99.90;;;;;;5053174;28;20131;-84
2022/05/31 05:14:59;;;;;;;9.00;7.03;;;9.60;99.90;;;;;;5070441;28;20127;-83
2022/05/31 05:17:25;;;;;;;7.93;6.65;;;9.70;99.90;;;;;;5048445;28;20189;-84
2022/05/31 05:19:51;;;;;;;10.98;6.82;;;9.70;99.90;;;;;;5069008;28;20505;-83
2022/05/31 05:22:17;;;;;;;9.82;6.78;;;9.70;99.90;;;;;;5087015;28;20124;-83
2022/05/31 05:24:43;;;;;;;10.90;7.13;;;9.80;99.90;;;;;;5068598;28;20040;-83
2022/05/31 05:27:08;;;;;;;9.20;6.70;;;9.90;99.90;;;;;;5053587;28;20514;-84
2022/05/31 05:32:18;;;;;;;10.65;7.30;;;9.90;99.90;;;;;;5067902;28;20056;-84
2022/05/31 05:34:52;;;;;;;11.40;6.70;;;10.10;99.90;;;;;;5051639;28;20108;-83
2022/05/31 05:37:19;;;;;;;8.63;6.28;;;10.20;99.90;;;;;;5050521;28;20097;-83
2022/05/31 05:39:46;;;;;;;12.02;6.68;;;10.40;99.90;;;;;;5068860;28;20056;-83
2022/05/31 05:42:13;;;;;;;8.23;6.38;;;10.30;99.90;;;;;;5058841;28;20048;-84
2022/05/31 05:44:39;;;;;;;8.10;6.57;;;10.50;99.90;;;;;;5049297;28;20046;-84
2022/05/31 05:47:07;;;;;;;9.52;6.55;;;10.50;99.90;;;;;;5049171;28;20051;-84
2022/05/31 05:49:32;;;;;;;12.23;6.78;;;10.60;99.90;;;;;;5048714;28;20117;-83
2022/05/31 05:52:00;;;;;;;9.50;7.13;;;10.70;99.90;;;;;;5049136;28;20102;-82
2022/05/31 05:54:26;;;;;;;9.50;7.15;;;10.70;99.90;;;;;;5048600;28;20499;-84
2022/05/31 05:56:52;;;;;;;9.00;6.97;;;10.80;99.90;;;;;;5032456;28;20049;-84
2022/05/31 05:59:20;;;;;;;9.60;7.32;;;10.90;99.90;;;;;;5031572;28;20052;-84
2022/05/31 06:01:49;;;;;;;8.90;6.63;;;10.90;99.90;;;;;;5032649;28;20032;-83
2022/05/31 06:04:25;;;;;;;10.27;7.03;;;11.00;99.90;;;;;;5047409;28;20060;-83
2022/05/31 06:07:09;;;;;;;12.63;7.13;;;11.00;99.90;;;;;;5048787;28;20109;-84
2022/05/31 06:09:36;;;;;;;10.40;6.60;;;11.10;99.90;;;;;;5049024;28;20101;-84
2022/05/31 06:12:08;;;;;;;10.13;6.90;;;11.10;99.90;;;;;;5032452;28;20822;-83
2022/05/31 06:14:40;;;;;;;10.00;6.85;;;11.20;99.90;;;;;;5048408;28;20052;-84
2022/05/31 06:17:13;;;;;;;13.77;6.97;;;11.20;99.90;;;;;;5031967;28;20146;-84
2022/05/31 06:19:40;;;;;;;8.43;6.45;;;11.30;99.90;;;;;;5048104;28;20044;-85
2022/05/31 06:22:07;;;;;;;12.55;6.55;;;11.30;99.90;;;;;;5032026;28;20136;-84
2022/05/31 06:24:35;;;;;;;18.17;6.95;;;11.40;99.90;;;;;;5048948;28;20411;-85
2022/05/31 06:27:01;;;;;;;13.93;7.07;;;11.50;99.90;;;;;;5051740;28;20052;-84
2022/05/31 06:29:28;;;;;;;8.82;6.82;;;11.50;99.90;;;;;;5048338;28;20598;-83
2022/05/31 06:31:54;;;;;;;11.73;7.05;;;11.50;99.90;;;;;;5053345;28;20048;-84
2022/05/31 06:34:20;;;;;;;10.90;7.03;;;11.60;99.90;;;;;;5034807;28;20105;-86
2022/05/31 06:36:45;;;;;;;10.25;7.20;;;11.80;99.90;;;;;;5083427;28;20028;-85
2022/05/31 06:39:11;;;;;;;12.48;6.82;;;11.70;99.90;;;;;;5074342;28;20131;-84
2022/05/31 06:41:37;;;;;;;18.23;7.60;;;11.80;99.90;;;;;;5072291;28;20051;-86
2022/05/31 06:44:03;;;;;;;13.95;7.88;;;11.90;99.90;;;;;;5055805;28;20119;-86
2022/05/31 06:46:30;;;;;;;11.40;7.55;;;12.00;99.90;;;;;;5072643;28;20169;-84
2022/05/31 06:48:57;;;;;;;11.48;6.88;;;12.10;99.90;;;;;;5071992;28;20466;-86
2022/05/31 06:56:54;;;;;;;11.13;6.28;;;12.40;99.90;;;;;;5032859;28;20355;-86
2022/05/31 06:59:20;;;;;;;10.35;6.47;;;12.40;99.90;;;;;;5032622;28;20414;-85
2022/05/31 07:01:47;;;;;;;9.18;5.95;;;12.60;99.90;;;;;;5016026;28;20447;-86
2022/05/31 07:04:13;;;;;;;11.02;6.55;;;12.70;99.90;;;;;;5014613;28;20056;-86
2022/05/31 07:06:39;;;;;;;7.60;6.18;;;12.70;99.90;;;;;;5037128;28;20179;-85
2022/05/31 07:09:05;;;;;;;7.82;5.57;;;12.80;99.90;;;;;;5037811;28;20461;-85
2022/05/31 07:11:31;;;;;;;6.57;5.15;;;12.90;99.90;;;;;;5042244;28;20074;-85
2022/05/31 07:13:57;;;;;;;7.55;5.15;;;13.10;99.90;;;;;;5040969;28;20053;-84
2022/05/31 07:16:23;;;;;;;8.85;5.25;;;13.20;99.90;;;;;;5023511;28;20102;-83
2022/05/31 07:18:49;;;;;;;8.02;4.85;;;13.30;99.90;;;;;;5023082;28;20476;-84
2022/05/31 07:21:15;;;;;;;8.90;4.13;;;13.40;99.90;;;;;;5040711;28;20062;-84
2022/05/31 07:23:41;;;;;;;12.25;4.70;;;13.40;99.90;;;;;;5040275;28;20041;-84
2022/05/31 07:26:08;;;;;;;8.20;5.00;;;13.60;99.90;;;;;;5015043;28;20186;-85
2022/05/31 07:28:34;;;;;;;8.02;4.68;;;13.70;99.90;;;;;;5048081;28;20041;-85
2022/05/31 07:31:00;;;;;;;9.25;4.38;;;13.80;99.90;;;;;;5035596;28;20059;-84
2022/05/31 07:33:26;;;;;;;10.63;5.20;;;14.00;99.90;;;;;;5042714;28;20432;-83
2022/05/31 07:35:52;;;;;;;9.52;4.93;;;14.10;99.90;;;;;;5067976;28;20051;-84
2022/05/31 07:38:20;;;;;;;8.40;4.18;;;14.30;99.90;;;;;;5033150;28;20618;-84
2022/05/31 07:40:46;;;;;;;6.70;4.45;;;14.50;99.90;;;;;;5067711;28;20036;-82
2022/05/31 07:43:12;;;;;;;5.57;3.90;;;14.60;99.90;;;;;;5047285;28;20044;-82
2022/05/31 07:45:38;;;;;;;6.32;3.92;;;14.60;99.90;;;;;;5049917;28;20099;-81
2022/05/31 07:48:05;;;;;;;10.25;4.20;;;14.70;99.90;;;;;;5033708;28;20147;-82
2022/05/31 07:50:31;;;;;;;8.50;3.85;;;14.80;99.90;;;;;;5048634;28;20400;-82
2022/05/31 07:52:59;;;;;;;5.75;3.92;;;15.00;99.90;;;;;;5048379;28;20052;-81
2022/05/31 07:55:27;;;;;;;9.77;4.22;;;15.00;99.90;;;;;;5061774;28;20167;-81
2022/05/31 08:00:37;;;;;;;6.30;3.58;;;15.10;99.90;;;;;;5050896;28;20408;-81
2022/05/31 08:03:05;;;;;;;10.02;4.10;;;15.30;99.90;;;;;;5048274;28;20048;-81
2022/05/31 08:05:31;;;;;;;5.82;3.40;;;15.30;99.90;;;;;;5049636;28;20549;-81
2022/05/31 08:07:57;;;;;;;10.20;3.30;;;15.30;99.90;;;;;;5050028;28;20059;-81
2022/05/31 08:10:22;;;;;;;12.40;3.35;;;15.20;99.90;;;;;;5052131;28;20052;-82
2022/05/31 08:12:48;;;;;;;8.52;3.53;;;15.20;99.90;;;;;;5049501;28;20183;-83
2022/05/31 08:15:15;;;;;;;6.28;3.20;;;15.40;99.90;;;;;;5050115;28;20032;-83
2022/05/31 08:17:42;;;;;;;6.15;3.40;;;15.60;99.90;;;;;;5051436;28;20055;-82
2022/05/31 08:20:08;;;;;;;7.22;3.53;;;15.60;99.90;;;;;;5050379;28;20106;-82
2022/05/31 08:22:35;;;;;;;6.65;3.45;;;15.60;99.90;;;;;;5069020;28;20045;-82
2022/05/31 08:25:02;;;;;;;9.43;3.33;;;15.60;99.90;;;;;;5050782;28;20054;-82
2022/05/31 08:27:28;;;;;;;7.68;3.47;;;15.70;99.90;;;;;;5049968;28;20056;-82
2022/05/31 08:29:54;;;;;;;11.18;3.67;;;15.80;99.90;;;;;;5069227;28;20051;-82
2022/05/31 08:32:20;;;;;;;8.95;3.30;;;15.90;99.90;;;;;;5053748;28;20044;-83
2022/05/31 08:34:47;;;;;;;6.72;3.15;;;16.00;99.90;;;;;;5029333;28;20051;-81
2022/05/31 08:37:13;;;;;;;6.43;3.45;;;16.00;99.90;;;;;;5030471;28;20119;-81
2022/05/31 08:39:39;;;;;;;6.00;3.50;;;16.10;99.90;;;;;;5030138;28;20055;-82
2022/05/31 08:42:10;;;;;;;8.25;3.75;;;16.20;99.90;;;;;;5030189;28;20045;-82
2022/05/31 08:45:00;;;;;;;8.25;3.65;;;16.40;99.90;;;;;;5048717;28;20040;-82
2022/05/31 08:47:50;;;;;;;6.72;3.10;;;16.70;99.90;;;;;;5031003;28;20066;-82
2022/05/31 08:53:13;;;;;;;;;;;17.10;99.90;;;;;;5029885;28;20400;-82
2022/05/31 08:58:49;;;;;;;9.80;3.03;;;17.40;99.90;;;;;;5068993;28;20050;-82
2022/05/31 09:01:19;;;;;;;8.13;2.97;;;17.40;99.90;;;;;;5049164;28;20070;-82
2022/05/31 09:03:51;;;;;;;7.65;2.65;;;17.50;99.90;;;;;;5049575;28;20040;-82
2022/05/31 09:06:25;;;;;;;7.38;2.28;;;17.50;99.90;;;;;;5050033;28;20135;-82
2022/05/31 09:09:03;;;;;;;3.65;1.90;;;17.50;99.90;;;;;;5049627;28;20110;-82
2022/05/31 09:11:40;;;;;;;5.80;2.00;;;17.40;99.90;;;;;;5049950;28;20044;-82
2022/05/31 09:14:16;;;;;;;5.85;2.58;;;17.40;99.90;;;;;;5049802;28;20527;-82
2022/05/31 09:16:58;;;;;;;5.53;2.30;;;17.40;99.90;;;;;;5049894;28;20124;-81
2022/05/31 09:19:33;;;;;;;5.18;2.30;;;17.40;99.90;;;;;;5048984;28;20503;-82
2022/05/31 09:22:01;;;;;;;6.70;2.42;;;17.50;99.90;;;;;;5049482;28;20056;-82
2022/05/31 09:24:28;;;;;;;8.32;2.70;;;17.60;99.90;;;;;;5050048;28;20127;-82
2022/05/31 09:27:08;;;;;;;5.72;2.70;;;17.90;99.90;;;;;;5067777;28;20067;-82
2022/05/31 09:30:08;;;;;;;9.95;2.70;;;18.00;99.90;;;;;;5049182;28;20044;-82
2022/05/31 09:32:38;;;;;;;6.78;2.55;;;18.20;99.90;;;;;;5049860;28;20503;-81
2022/05/31 09:35:19;;;;;;;4.70;2.40;;;18.30;99.90;;;;;;5031781;28;20086;-82
2022/05/31 09:37:57;;;;;;;7.18;2.85;;;18.50;99.90;;;;;;5048880;28;20052;-82
2022/05/31 09:40:42;;;;;;;6.15;2.50;;;18.40;99.90;;;;;;5048837;28;20052;-81
2022/05/31 09:43:24;;;;;;;5.95;2.17;;;18.30;99.90;;;;;;5031457;28;20048;-81
2022/05/31 09:46:00;;;;;;;5.93;2.30;;;18.20;99.90;;;;;;5049485;28;20126;-82
2022/05/31 09:48:27;;;;;;;4.03;1.63;;;18.30;99.90;;;;;;5048555;28;20442;-82
2022/05/31 09:51:10;;;;;;;5.15;2.05;;;18.40;99.90;;;;;;5066978;28;20131;-82
2022/05/31 09:59:12;;;;;;;7.85;2.58;;;19.10;99.90;;;;;;5047795;28;20052;-82
2022/05/31 10:01:43;;;;;;;8.68;2.85;;;19.20;99.90;;;;;;5067748;28;20040;-81
2022/05/31 10:04:13;;;;;;;6.32;2.20;;;19.20;99.90;;;;;;5064901;28;20048;-82
2022/05/31 10:06:54;;;;;;;4.85;2.00;;;19.20;99.90;;;;;;5067580;28;20189;-82
2022/05/31 10:09:24;;;;;;;5.40;2.53;;;19.10;99.90;;;;;;5048614;28;20048;-82
2022/05/31 10:12:04;;;;;;;7.45;2.47;;;18.90;99.90;;;;;;5066334;28;20040;-82
2022/05/31 10:14:34;;;;;;;5.80;2.45;;;18.60;99.90;;;;;;5049045;28;20044;-82
2022/05/31 10:17:32;;;;;;;5.65;2.45;;;18.40;99.90;;;;;;5049216;28;20053;-82
2022/05/31 10:20:13;;;;;;;5.78;2.53;;;18.20;99.90;;;;;;5047409;28;20048;-82
2022/05/31 10:22:59;;;;;;;8.88;2.28;;;18.00;99.90;;;;;;5048807;28;20102;-81
2022/05/31 10:25:32;;;;;;;5.70;2.40;;;17.90;99.90;;;;;;5047675;28;20563;-82
2022/05/31 10:28:00;;;;;;;;;;;17.80;99.90;;;;;;5067349;28;20861;-81
2022/05/31 10:30:27;;;;;;;5.57;2.58;;;17.60;99.90;;;;;;5065716;28;19986;-81
2022/05/31 10:32:58;;;;;;;6.90;2.58;;;17.50;99.90;;;;;;5047625;28;20508;-81
2022/05/31 10:35:28;;;;;;;4.47;2.35;;;17.40;99.90;;;;;;5066882;28;20051;-81
2022/05/31 10:37:57;;;;;;;4.65;1.95;;;17.20;99.90;;;;;;5066863;28;20400;-82
2022/05/31 10:40:40;;;;;;;4.10;1.92;;;17.10;99.90;;;;;;5066781;28;20044;-82
2022/05/31 10:43:34;;;;;;;19.15;2.60;;;16.90;99.90;;;;;;5048609;28;20143;-82
2022/05/31 10:46:05;;;;;;;4.85;2.00;;;16.70;99.90;;;;;;5049155;28;20041;-82
2022/05/31 10:48:31;;;;;;;7.07;2.38;;;16.60;99.90;;;;;;5030805;28;20052;-82
2022/05/31 10:51:03;;;;;;;7.90;2.00;;;16.50;99.90;;;;;;5049112;28;20047;-81
2022/05/31 10:53:45;;;;;;;5.18;2.10;;;16.40;99.90;;;;;;5048602;28;20048;-81
2022/05/31 10:56:25;;;;;;;9.47;2.00;;;16.50;99.90;;;;;;5031675;28;20086;-81
2022/05/31 10:58:59;;;;;;;4.57;1.70;;;16.60;99.90;;;;;;5032376;28;20234;-81
2022/05/31 11:01:27;;;;;;;7.40;2.17;;;16.80;99.90;;;;;;5031635;28;20052;-81
2022/05/31 11:04:09;;;;;;;7.22;2.00;;;17.00;99.90;;;;;;5047953;28;20514;-81
2022/05/31 11:06:47;;;;;;;9.02;2.10;;;17.20;99.90;;;;;;5048840;28;20045;-80
2022/05/31 11:12:47;;;;;;;4.93;2.08;;;17.60;99.90;;;;;;5047976;28;20048;-81
2022/05/31 11:15:28;;;;;;;6.35;2.15;;;17.80;99.90;;;;;;5066206;28;20067;-81
2022/05/31 11:18:17;;;;;;;5.57;1.90;;;17.80;99.90;;;;;;5051092;28;20090;-81
2022/05/31 11:20:47;;;;;;;6.35;2.05;;;17.90;99.90;;;;;;5038714;28;20040;-81
2022/05/31 11:23:14;;;;;;;5.30;2.03;;;18.10;99.90;;;;;;5050851;28;20068;-82
2022/05/31 11:25:51;;;;;;;5.53;2.00;;;18.50;99.90;;;;;;5052007;28;20066;-81
2022/05/31 11:28:32;;;;;;;4.07;1.90;;;18.80;99.90;;;;;;5069643;28;20117;-81
2022/05/31 11:31:03;;;;;;;6.03;1.70;;;19.00;99.90;;;;;;5051991;28;20051;-81
2022/05/31 11:33:52;;;;;;;8.05;1.65;;;19.20;99.90;;;;;;5051665;28;20463;-81
2022/05/31 11:36:18;;;;;;;3.35;1.45;;;19.30;99.90;;;;;;5050892;28;20082;-82
2022/05/31 11:38:59;;;;;;;5.75;1.67;;;19.40;99.30;;;;;;5051939;28;20062;-82
2022/05/31 11:41:26;;;;;;;4.78;1.42;;;19.40;97.40;;;;;;5051164;28;20052;-82
2022/05/31 11:44:12;;;;;;;8.52;2.03;;;19.50;99.20;;;;;;5034657;28;20052;-85
2022/05/31 11:46:43;;;;;;;6.15;2.03;;;19.60;98.30;;;;;;5052376;28;20045;-84
2022/05/31 11:49:31;;;;;;;5.38;2.03;;;19.70;96.40;;;;;;5050248;28;20500;-83
2022/05/31 11:52:01;;;;;;;4.55;1.55;;;19.90;95.50;;;;;;5051566;28;20055;-83
2022/05/31 11:58:07;;;;;;;5.00;2.13;;;20.40;91.70;;;;;;5050552;28;20063;-83
2022/05/31 12:00:40;;;;;;;4.32;1.67;;;20.20;83.90;;;;;;5068391;28;20080;-81
2022/05/31 12:03:16;;;;;;;4.32;1.67;;;20.20;91.60;;;;;;5050166;28;20060;-83
2022/05/31 12:05:47;;;;;;;6.55;2.00;;;20.10;91.10;;;;;;5050537;28;20063;-82
2022/05/31 12:08:23;;;;;;;5.07;2.30;;;20.00;91.80;;;;;;5051025;28;20059;-82
2022/05/31 12:10:52;;;;;;;5.43;2.47;;;20.00;85.20;;;;;;5051025;28;20102;-82
2022/05/31 12:13:19;;;;;;;7.18;2.03;;;20.10;92.30;;;;;;5067458;28;20040;-82
2022/05/31 12:15:48;;;;;;;7.18;2.40;;;20.10;93.10;;;;;;5069561;28;20114;-82
2022/05/31 12:18:27;;;;;;;5.43;2.05;;;20.20;93.20;;;;;;5067545;28;20140;-82
2022/05/31 12:21:01;;;;;;;5.80;2.22;;;20.30;90.80;;;;;;5051313;28;20091;-82
2022/05/31 12:23:41;;;;;;;6.13;2.22;;;20.50;93.00;;;;;;5050949;28;20483;-82
2022/05/31 12:26:21;;;;;;;6.80;2.20;;;20.80;90.00;;;;;;5066234;28;20064;-83
2022/05/31 12:28:54;;;;;;;8.43;2.25;;;21.00;82.50;;;;;;5051071;28;20044;-83
2022/05/31 12:31:23;;;;;;;8.23;2.50;;;21.10;88.40;;;;;;5052926;28;20044;-83
2022/05/31 12:33:49;;;;;;;3.13;1.77;;;21.00;84.20;;;;;;5049780;28;20121;-83
2022/05/31 12:36:18;;;;;;;6.28;2.60;;;20.70;86.80;;;;;;5050145;28;20127;-83
2022/05/31 12:39:19;;;;;;;6.03;2.70;;;20.40;88.10;;;;;;5050417;28;20052;-83
2022/05/31 12:41:47;;;;;;;5.20;1.90;;;20.00;91.10;;;;;;5050711;28;20123;-82
2022/05/31 12:44:15;;;;;;;5.45;1.40;;;19.70;94.20;;;;;;5050451;28;20109;-83
2022/05/31 12:46:45;;;;;;;6.43;2.10;;;19.40;93.80;;;;;;5049823;28;20098;-82
2022/05/31 12:49:22;;;;;;;4.95;1.80;;;19.10;93.00;;;;;;5049213;28;20044;-83
2022/05/31 12:52:11;;;;;;;4.57;2.00;;;18.90;93.70;;;;;;5050773;28;20044;-82
2022/05/31 12:54:47;;;;;;;5.18;2.00;;;18.60;96.00;;;;;;5049595;28;20056;-83
2022/05/31 13:00:33;;;;;;;5.03;2.30;;;18.20;99.10;;;;;;5049380;28;20458;-82
2022/05/31 13:03:05;;;;;;;6.80;2.33;;;18.10;98.30;;;;;;5048932;28;20102;-80
2022/05/31 13:05:34;;;;;;;4.10;1.88;;;17.90;97.50;;;;;;5050531;28;20040;-84
2022/05/31 13:08:12;;;;;;;4.78;2.03;;;17.80;98.30;;;;;;5049381;28;20063;-84
2022/05/31 13:19:34;;;;;;;4.05;2.08;;;17.70;98.40;;;;;;5033424;28;20054;-83
2022/05/31 13:21:56;;;;;;;7.20;1.75;;;17.40;99.10;;;;;;5049732;28;20475;-83
2022/05/31 13:24:24;;;;;;;5.45;1.70;;;17.40;99.90;;;;;;5049507;28;20059;-84
2022/05/31 13:26:51;;;;;;;4.75;1.77;;;17.40;99.90;;;;;;5033497;28;20037;-85
2022/05/31 13:29:20;;;;;;;4.43;1.75;;;17.40;99.90;;;;;;5048969;28;20405;-85
2022/05/31 13:31:51;;;;;;;4.88;1.80;;;17.50;99.90;;;;;;5049988;28;20434;-85
2022/05/31 13:34:42;;;;;;;7.53;1.67;;;17.50;99.90;;;;;;5049985;28;20114;-84
2022/05/31 13:37:16;;;;;;;8.43;2.22;;;17.50;99.90;;;;;;5065217;28;20076;-84
2022/05/31 13:39:45;;;;;;;4.20;1.80;;;17.60;99.90;;;;;;5034496;28;20044;-84
2022/05/31 13:42:21;;;;;;;6.95;1.80;;;17.50;99.90;;;;;;5031733;28;20040;-84
2022/05/31 13:44:47;;;;;;;4.47;1.63;;;17.50;99.40;;;;;;5034327;28;20041;-85
2022/05/31 13:47:18;;;;;;;6.28;1.73;;;17.40;99.90;;;;;;5049547;28;20446;-84
2022/05/31 13:49:45;;;;;;;9.50;1.77;;;17.40;99.90;;;;;;5031398;28;20173;-84